createdAt,value
2019-06-07T00:00:29.856Z,99.90
2019-06-07T00:02:40.289Z,99.90
2019-06-07T00:05:09.819Z,99.90
2019-06-07T00:07:37.516Z,99.90
2019-06-07T00:10:06.838Z,99.90
2019-06-07T00:12:34.732Z,99.90
2019-06-07T00:15:02.507Z,99.90
2019-06-07T00:17:30.155Z,99.90
2019-06-07T00:22:32.942Z,99.90
2019-06-07T00:24:54.766Z,99.90
2019-06-07T00:27:22.790Z,99.90
2019-06-07T00:29:50.661Z,99.90
2019-06-07T00:32:21.734Z,99.90
2019-06-07T00:34:47.942Z,99.90
2019-06-07T00:37:16.422Z,99.90
2019-06-07T00:39:45.303Z,99.90
2019-06-07T00:42:17.005Z,99.90
2019-06-07T00:44:42.804Z,99.90
2019-06-07T00:47:10.715Z,99.90
2019-06-07T00:49:41.546Z,99.90
2019-06-07T00:52:08.002Z,99.90
2019-06-07T00:54:35.716Z,99.90
2019-06-07T00:57:03.436Z,99.90
2019-06-07T00:59:31.283Z,99.90
2019-06-07T01:01:59.005Z,99.90
2019-06-07T01:04:27.233Z,99.90
2019-06-07T01:06:55.279Z,99.90
2019-06-07T01:09:25.325Z,99.90
2019-06-07T01:11:52.302Z,99.90
2019-06-07T01:14:24.050Z,99.90
2019-06-07T01:16:57.540Z,99.90
2019-06-07T01:19:22.356Z,99.90
2019-06-07T01:21:48.549Z,99.90
2019-06-07T01:24:17.498Z,99.90
2019-06-07T01:26:45.658Z,99.90
2019-06-07T01:29:13.517Z,99.90
2019-06-07T01:31:41.163Z,99.90
2019-06-07T01:34:08.824Z,99.90
2019-06-07T01:36:36.592Z,99.90
2019-06-07T01:39:05.968Z,99.90
2019-06-07T01:41:33.635Z,99.90
2019-06-07T01:44:01.405Z,99.90
2019-06-07T01:46:29.617Z,99.90
2019-06-07T01:48:57.519Z,99.90
2019-06-07T01:51:27.910Z,99.90
2019-06-07T01:54:40.855Z,99.90
2019-06-07T01:56:26.673Z,99.90
2019-06-07T01:58:54.125Z,99.90
2019-06-07T02:01:23.925Z,99.90
2019-06-07T02:03:51.178Z,99.90
2019-06-07T02:06:20.519Z,99.90
2019-06-07T02:08:48.555Z,99.90
2019-06-07T02:11:17.718Z,99.90
2019-06-07T02:13:45.603Z,99.90
2019-06-07T02:16:13.375Z,99.90
2019-06-07T02:19:00.654Z,99.90
2019-06-07T02:21:10.536Z,99.90
2019-06-07T02:23:38.476Z,99.90
2019-06-07T02:28:44.428Z,99.90
2019-06-07T02:31:02.886Z,99.90
2019-06-07T02:33:35.071Z,99.90
2019-06-07T02:36:00.030Z,99.90
2019-06-07T02:38:31.040Z,99.90
2019-06-07T02:40:57.347Z,99.90
2019-06-07T02:43:27.354Z,99.90
2019-06-07T02:45:54.689Z,99.90
2019-06-07T02:48:24.511Z,99.90
2019-06-07T02:50:52.041Z,99.90
2019-06-07T02:53:19.710Z,99.90
2019-06-07T02:56:34.088Z,99.90
2019-06-07T02:58:17.007Z,99.90
2019-06-07T03:01:05.560Z,99.90
2019-06-07T03:03:15.812Z,99.90
2019-06-07T03:05:44.194Z,99.90
2019-06-07T03:08:16.084Z,99.90
2019-06-07T03:10:44.940Z,99.90
2019-06-07T03:13:14.126Z,99.90
2019-06-07T03:15:49.989Z,99.90
2019-06-07T03:18:15.883Z,99.90
2019-06-07T03:21:03.870Z,99.90
2019-06-07T03:23:14.771Z,99.90
2019-06-07T03:25:42.891Z,99.90
2019-06-07T03:28:10.681Z,99.90
2019-06-07T03:30:57.134Z,99.90
2019-06-07T03:33:07.730Z,99.90
2019-06-07T03:35:37.437Z,99.90
2019-06-07T03:38:05.096Z,99.90
2019-06-07T03:40:36.919Z,99.90
2019-06-07T03:45:30.749Z,99.90
2019-06-07T03:47:59.027Z,99.90
2019-06-07T03:50:30.598Z,99.90
2019-06-07T03:52:56.116Z,99.90
2019-06-07T03:55:23.787Z,99.90
2019-06-07T04:00:21.213Z,99.90
2019-06-07T04:02:48.866Z,99.90
2019-06-07T04:05:16.876Z,99.90
2019-06-07T04:07:44.747Z,99.90
2019-06-07T04:10:12.554Z,99.90
2019-06-07T04:12:43.997Z,99.90
2019-06-07T04:15:09.679Z,99.90
2019-06-07T04:17:44.580Z,99.90
2019-06-07T04:20:06.736Z,99.90
2019-06-07T04:22:37.620Z,99.90
2019-06-07T04:25:08.677Z,99.90
2019-06-07T04:27:39.227Z,99.90
2019-06-07T04:30:08.091Z,99.90
2019-06-07T04:32:37.149Z,99.90
2019-06-07T04:35:05.539Z,99.90
2019-06-07T04:37:36.141Z,99.90
2019-06-07T04:40:03.920Z,99.90
2019-06-07T04:42:35.039Z,99.90
2019-06-07T04:45:02.911Z,99.90
2019-06-07T04:47:33.785Z,99.90
2019-06-07T04:50:02.081Z,99.90
2019-06-07T04:52:32.469Z,99.90
2019-06-07T04:54:59.460Z,99.90
2019-06-07T04:57:27.235Z,99.90
2019-06-07T05:00:11.879Z,99.90
2019-06-07T05:02:24.413Z,99.90
2019-06-07T05:04:52.183Z,99.90
2019-06-07T05:07:19.841Z,99.90
2019-06-07T05:09:47.501Z,99.90
2019-06-07T05:12:15.272Z,99.90
2019-06-07T05:14:44.331Z,99.90
2019-06-07T05:17:12.154Z,99.90
2019-06-07T05:19:43.748Z,99.90
2019-06-07T05:22:09.386Z,99.90
2019-06-07T05:24:38.979Z,99.90
2019-06-07T05:27:06.592Z,99.90
2019-06-07T05:29:36.798Z,99.90
2019-06-07T05:32:03.682Z,99.90
2019-06-07T05:34:32.757Z,99.90
2019-06-07T05:37:11.638Z,99.90
2019-06-07T05:39:32.109Z,99.90
2019-06-07T05:42:00.236Z,99.90
2019-06-07T05:44:28.016Z,99.90
2019-06-07T05:46:55.739Z,99.90
2019-06-07T05:49:23.423Z,99.90
2019-06-07T05:51:51.143Z,99.90
2019-06-07T05:54:18.869Z,99.90
2019-06-07T05:59:14.041Z,99.90
2019-06-07T06:01:48.026Z,99.90
2019-06-07T06:04:11.341Z,99.90
2019-06-07T06:06:43.191Z,99.90
2019-06-07T06:09:13.887Z,99.90
2019-06-07T06:11:49.288Z,99.90
2019-06-07T06:14:08.550Z,99.90
2019-06-07T06:16:37.170Z,99.90
2019-06-07T06:19:05.027Z,99.90
2019-06-07T06:21:32.714Z,99.90
2019-06-07T06:24:00.442Z,99.90
2019-06-07T06:26:28.155Z,99.90
2019-06-07T06:28:56.347Z,99.90
2019-06-07T06:31:24.241Z,99.90
2019-06-07T06:36:19.588Z,99.90
2019-06-07T06:38:49.838Z,99.90
2019-06-07T06:41:17.107Z,99.90
2019-06-07T06:43:49.099Z,99.90
2019-06-07T06:46:25.708Z,99.90
2019-06-07T06:48:50.912Z,99.90
2019-06-07T06:51:13.512Z,99.90
2019-06-07T06:53:42.212Z,99.90
2019-06-07T06:56:11.482Z,99.90
2019-06-07T06:59:21.716Z,99.90
2019-06-07T07:01:08.623Z,99.90
2019-06-07T07:03:57.612Z,99.90
2019-06-07T07:06:25.197Z,99.60
2019-06-07T07:08:36.494Z,99.90
2019-06-07T07:11:04.216Z,99.20
2019-06-07T07:13:32.067Z,99.80
2019-06-07T07:15:59.725Z,99.10
2019-06-07T07:20:57.217Z,99.90
2019-06-07T07:23:24.634Z,99.60
2019-06-07T07:28:21.590Z,99.90
2019-06-07T07:30:54.837Z,99.90
2019-06-07T07:33:20.230Z,99.90
2019-06-07T07:36:11.005Z,99.90
2019-06-07T07:38:17.638Z,99.90
2019-06-07T07:41:02.277Z,99.40
2019-06-07T07:43:14.929Z,99.50
2019-06-07T07:45:45.912Z,99.90
2019-06-07T07:48:17.729Z,99.30
2019-06-07T07:50:41.800Z,99.90
2019-06-07T07:53:09.525Z,99.80
2019-06-07T07:55:37.835Z,99.90
2019-06-07T07:58:05.807Z,99.60
2019-06-07T08:00:52.248Z,99.90
2019-06-07T08:03:04.450Z,99.90
2019-06-07T08:05:42.469Z,99.10
2019-06-07T08:08:05.011Z,97.10
2019-06-07T08:10:31.277Z,97.60
2019-06-07T08:13:22.130Z,98.10
2019-06-07T08:15:28.483Z,98.30
2019-06-07T08:18:01.130Z,98.70
2019-06-07T08:20:25.944Z,99.10
2019-06-07T08:22:58.845Z,99.40
2019-06-07T08:33:50.155Z,98.00
2019-06-07T08:36:22.031Z,97.40
2019-06-07T08:38:52.275Z,98.00
2019-06-07T08:41:16.900Z,97.70
2019-06-07T08:43:44.548Z,96.80
2019-06-07T08:46:12.298Z,95.30
2019-06-07T08:48:40.236Z,96.80
2019-06-07T08:51:08.817Z,95.30
2019-06-07T08:53:36.675Z,95.80
2019-06-07T08:56:09.158Z,95.90
2019-06-07T08:58:33.924Z,96.10
2019-06-07T09:01:07.837Z,95.90
2019-06-07T09:06:06.138Z,96.10
2019-06-07T09:08:30.740Z,96.40
2019-06-07T09:10:59.464Z,97.00
2019-06-07T09:13:26.782Z,97.60
2019-06-07T09:15:56.047Z,95.30
2019-06-07T09:18:41.048Z,95.40
2019-06-07T09:20:53.703Z,95.80
2019-06-07T09:23:22.926Z,95.90
2019-06-07T09:26:02.614Z,94.80
2019-06-07T09:28:21.090Z,93.90
2019-06-07T09:33:16.447Z,91.50
2019-06-07T09:40:40.606Z,92.30
2019-06-07T09:43:55.372Z,90.40
2019-06-07T09:45:37.824Z,88.90
2019-06-07T09:48:12.549Z,90.30
2019-06-07T09:50:35.250Z,90.90
2019-06-07T09:53:14.023Z,90.90
2019-06-07T09:55:32.391Z,92.30
2019-06-07T09:58:08.023Z,92.60
2019-06-07T10:00:44.954Z,92.80
2019-06-07T10:03:05.581Z,93.10
2019-06-07T10:05:28.785Z,93.40
2019-06-07T10:08:07.661Z,93.60
2019-06-07T10:12:55.321Z,92.40
2019-06-07T10:15:23.088Z,91.40
2019-06-07T10:17:50.774Z,92.40
2019-06-07T10:20:18.606Z,92.40
2019-06-07T10:22:46.301Z,93.20
2019-06-07T10:25:14.264Z,91.90
2019-06-07T10:27:41.954Z,91.50
2019-06-07T10:30:10.401Z,92.10
2019-06-07T10:32:38.303Z,91.70
2019-06-07T10:35:07.616Z,91.40
2019-06-07T10:37:35.880Z,91.30
2019-06-07T10:40:05.348Z,91.50
2019-06-07T10:42:33.067Z,90.50
2019-06-07T10:45:02.619Z,89.40
2019-06-07T10:47:30.639Z,90.00
2019-06-07T10:49:58.338Z,90.00
2019-06-07T10:52:25.987Z,89.50
2019-06-07T10:54:54.347Z,88.20
2019-06-07T10:57:22.027Z,90.10
2019-06-07T10:59:49.714Z,91.10
2019-06-07T11:02:17.529Z,90.50
2019-06-07T11:04:45.202Z,89.30
2019-06-07T11:07:14.351Z,89.80
2019-06-07T11:09:42.251Z,89.80
2019-06-07T11:12:10.710Z,90.30
2019-06-07T11:14:38.612Z,89.60
2019-06-07T11:17:07.314Z,90.40
2019-06-07T11:19:35.118Z,90.20
2019-06-07T11:22:02.772Z,90.80
2019-06-07T11:24:30.557Z,89.50
2019-06-07T11:26:58.729Z,90.80
2019-06-07T11:29:26.381Z,90.40
2019-06-07T11:31:54.166Z,90.60
2019-06-07T11:34:21.822Z,89.10
2019-06-07T11:36:51.126Z,89.10
2019-06-07T11:39:18.978Z,89.00
2019-06-07T11:41:46.649Z,90.00
2019-06-07T11:44:15.015Z,89.90
2019-06-07T11:46:42.759Z,89.10
2019-06-07T11:49:10.838Z,84.90
2019-06-07T11:51:39.435Z,82.90
2019-06-07T11:54:07.759Z,84.60
2019-06-07T11:56:37.018Z,85.00
2019-06-07T11:59:04.863Z,87.70
2019-06-07T12:01:32.580Z,90.50
2019-06-07T12:04:00.226Z,86.50
2019-06-07T12:06:28.085Z,83.20
2019-06-07T12:08:55.739Z,85.20
2019-06-07T12:11:23.471Z,86.60
2019-06-07T12:13:51.254Z,87.60
2019-06-07T12:16:19.522Z,87.30
2019-06-07T12:18:47.213Z,85.50
2019-06-07T12:21:15.750Z,86.70
2019-06-07T12:23:43.888Z,84.70
2019-06-07T12:26:12.298Z,86.80
2019-06-07T12:28:40.291Z,85.50
2019-06-07T12:31:07.931Z,86.20
2019-06-07T12:33:35.657Z,81.40
2019-06-07T12:36:03.483Z,81.90
2019-06-07T12:38:31.215Z,83.60
2019-06-07T12:40:59.034Z,83.80
2019-06-07T12:43:26.716Z,78.30
2019-06-07T12:45:54.365Z,78.90
2019-06-07T12:48:25.835Z,78.50
2019-06-07T12:50:51.597Z,79.30
2019-06-07T12:53:24.130Z,79.80
2019-06-07T12:55:50.083Z,78.40
2019-06-07T12:58:25.878Z,75.80
2019-06-07T13:00:47.174Z,76.20
2019-06-07T13:03:16.221Z,80.80
2019-06-07T13:05:43.992Z,81.20
2019-06-07T13:08:11.688Z,77.30
2019-06-07T13:10:39.480Z,78.20
2019-06-07T13:13:07.227Z,77.70
2019-06-07T13:15:34.898Z,78.20
2019-06-07T13:18:02.842Z,79.30
2019-06-07T13:20:30.622Z,77.80
2019-06-07T13:22:58.390Z,78.40
2019-06-07T13:25:43.486Z,79.10
2019-06-07T13:27:55.678Z,76.10
2019-06-07T13:30:25.422Z,77.10
2019-06-07T13:32:53.276Z,80.10
2019-06-07T13:35:22.412Z,79.90
2019-06-07T13:37:50.334Z,81.90
2019-06-07T13:40:19.690Z,83.40
2019-06-07T13:42:48.247Z,78.00
2019-06-07T13:45:15.950Z,77.90
2019-06-07T13:47:44.147Z,76.70
2019-06-07T13:52:39.917Z,72.10
2019-06-07T13:55:08.544Z,73.50
2019-06-07T13:57:36.179Z,73.80
2019-06-07T14:00:10.406Z,74.10
2019-06-07T14:02:35.272Z,75.70
2019-06-07T14:05:03.650Z,73.80
2019-06-07T14:07:31.545Z,75.50
2019-06-07T14:09:59.323Z,70.90
2019-06-07T14:12:27.822Z,73.70
2019-06-07T14:14:56.994Z,72.10
2019-06-07T14:17:25.271Z,74.40
2019-06-07T14:19:53.101Z,71.20
2019-06-07T14:22:20.751Z,75.00
2019-06-07T14:24:48.527Z,75.40
2019-06-07T14:27:16.470Z,76.90
2019-06-07T14:29:44.167Z,76.40
2019-06-07T14:32:12.754Z,70.60
2019-06-07T14:34:40.411Z,71.00
2019-06-07T14:37:08.136Z,70.60
2019-06-07T14:39:35.982Z,68.50
2019-06-07T14:42:09.797Z,68.60
2019-06-07T14:44:34.535Z,68.30
2019-06-07T14:47:02.689Z,70.60
2019-06-07T14:51:58.342Z,69.80
2019-06-07T14:54:27.411Z,61.30
2019-06-07T15:01:50.463Z,56.40
2019-06-07T15:06:45.560Z,49.30
2019-06-07T15:09:13.419Z,50.50
2019-06-07T15:11:41.150Z,47.90
2019-06-07T15:14:09.181Z,47.30
2019-06-07T15:16:37.960Z,49.10
2019-06-07T15:19:06.010Z,48.10
2019-06-07T15:21:35.016Z,44.60
2019-06-07T15:24:03.240Z,47.50
2019-06-07T15:26:32.384Z,49.20
2019-06-07T15:29:00.186Z,52.00
2019-06-07T15:31:27.979Z,56.20
2019-06-07T15:33:55.885Z,55.10
2019-06-07T15:36:23.532Z,56.20
2019-06-07T15:38:51.609Z,53.00
2019-06-07T15:41:19.615Z,52.80
2019-06-07T15:43:48.828Z,50.10
2019-06-07T15:46:16.728Z,48.10
2019-06-07T15:48:45.274Z,46.80
2019-06-07T15:51:12.997Z,47.20
2019-06-07T15:53:44.402Z,45.20
2019-06-07T15:56:10.237Z,44.40
2019-06-07T15:58:39.260Z,44.90
2019-06-07T16:01:07.235Z,44.40
2019-06-07T16:03:35.758Z,43.00
2019-06-07T16:06:03.775Z,43.10
2019-06-07T16:08:32.275Z,41.90
2019-06-07T16:10:59.992Z,43.10
2019-06-07T16:13:27.721Z,43.00
2019-06-07T16:15:55.445Z,43.20
2019-06-07T16:18:23.209Z,42.90
2019-06-07T16:20:50.963Z,43.20
2019-06-07T16:23:18.676Z,42.00
2019-06-07T16:25:46.441Z,42.40
2019-06-07T16:28:14.088Z,41.70
2019-06-07T16:30:42.675Z,42.40
2019-06-07T16:33:10.464Z,43.10
2019-06-07T16:35:39.056Z,43.50
2019-06-07T16:38:07.036Z,43.80
2019-06-07T16:40:36.292Z,44.20
2019-06-07T16:43:17.029Z,44.30
2019-06-07T16:45:34.292Z,42.10
2019-06-07T16:48:02.118Z,43.00
2019-06-07T16:50:29.768Z,42.50
2019-06-07T16:52:57.627Z,41.60
2019-06-07T16:55:25.365Z,41.60
2019-06-07T16:57:53.015Z,44.10
2019-06-07T17:02:48.832Z,41.90
2019-06-07T17:05:17.977Z,41.30
2019-06-07T17:07:46.977Z,42.70
2019-06-07T17:10:15.242Z,43.20
2019-06-07T17:12:43.032Z,43.90
2019-06-07T17:15:13.291Z,42.90
2019-06-07T17:17:41.147Z,42.00
2019-06-07T17:20:09.428Z,43.60
2019-06-07T17:22:38.951Z,44.90
2019-06-07T17:25:07.201Z,44.50
2019-06-07T17:27:34.949Z,45.20
2019-06-07T17:32:30.049Z,47.50
2019-06-07T17:34:57.680Z,47.40
2019-06-07T17:37:25.467Z,48.50
2019-06-07T17:39:53.121Z,49.10
2019-06-07T17:44:49.269Z,52.60
2019-06-07T17:47:17.423Z,53.40
2019-06-07T17:49:48.296Z,53.80
2019-06-07T17:52:16.091Z,54.20
2019-06-07T17:54:43.894Z,55.60
2019-06-07T17:57:11.557Z,56.00
2019-06-07T17:59:39.568Z,59.70
2019-06-07T18:02:14.843Z,61.50
2019-06-07T18:04:36.763Z,64.00
2019-06-07T18:07:04.627Z,65.70
2019-06-07T18:09:33.818Z,67.60
2019-06-07T18:12:01.467Z,70.30
2019-06-07T18:14:29.243Z,73.10
2019-06-07T18:16:56.903Z,72.10
2019-06-07T18:19:24.547Z,74.70
2019-06-07T18:21:56.057Z,75.40
2019-06-07T18:24:21.713Z,76.70
2019-06-07T18:26:50.456Z,79.10
2019-06-07T18:31:46.725Z,79.00
2019-06-07T18:34:14.931Z,81.50
2019-06-07T18:36:42.655Z,82.10
2019-06-07T18:39:10.348Z,86.60
2019-06-07T18:41:38.385Z,87.60
2019-06-07T18:44:20.508Z,85.90
2019-06-07T18:46:35.482Z,88.70
2019-06-07T18:49:03.267Z,89.70
2019-06-07T18:51:30.929Z,90.30
2019-06-07T18:53:58.666Z,90.70
2019-06-07T18:56:26.437Z,91.70
2019-06-07T18:58:55.322Z,92.20
2019-06-07T19:01:23.062Z,93.60
2019-06-07T19:03:52.008Z,93.90
2019-06-07T19:06:19.860Z,94.80
2019-06-07T19:08:48.416Z,96.10
2019-06-07T19:11:16.660Z,96.90
2019-06-07T19:13:44.298Z,97.40
2019-06-07T19:16:11.953Z,98.10
2019-06-07T19:18:39.740Z,99.50
2019-06-07T19:21:07.384Z,99.90
2019-06-07T19:23:35.027Z,99.90
2019-06-07T19:26:03.090Z,99.90
2019-06-07T19:28:30.730Z,99.90
2019-06-07T19:30:59.157Z,99.90
2019-06-07T19:33:27.123Z,99.90
2019-06-07T19:35:55.509Z,99.90
2019-06-07T19:38:23.457Z,99.90
2019-06-07T19:40:51.784Z,99.90
2019-06-07T19:43:19.530Z,99.90
2019-06-07T19:45:47.187Z,99.90
2019-06-07T19:48:14.911Z,99.90
2019-06-07T19:50:42.563Z,99.90
2019-06-07T19:53:10.220Z,99.90
2019-06-07T19:55:38.120Z,99.90
2019-06-07T19:58:05.836Z,99.90
2019-06-07T20:00:33.612Z,99.90
2019-06-07T20:03:02.210Z,99.90
2019-06-07T20:05:33.582Z,99.90
2019-06-07T20:08:00.612Z,99.90
2019-06-07T20:10:28.455Z,99.90
2019-06-07T20:12:56.626Z,99.90
2019-06-07T20:15:29.252Z,99.90
2019-06-07T20:17:55.122Z,99.90
2019-06-07T20:20:24.051Z,99.90
2019-06-07T20:22:51.801Z,99.90
2019-06-07T20:25:19.550Z,99.90
2019-06-07T20:27:47.199Z,99.90
2019-06-07T20:30:16.709Z,99.90
2019-06-07T20:32:44.400Z,99.90
2019-06-07T20:35:12.162Z,99.90
2019-06-07T20:37:39.948Z,99.90
2019-06-07T20:40:22.781Z,99.90
2019-06-07T20:42:38.660Z,99.90
2019-06-07T20:45:07.955Z,99.90
2019-06-07T20:47:36.262Z,99.90
2019-06-07T20:50:06.260Z,99.90
2019-06-07T20:52:34.127Z,99.90
2019-06-07T20:55:03.066Z,99.90
2019-06-07T20:57:30.895Z,99.90
2019-06-07T20:59:58.849Z,99.90
2019-06-07T21:02:26.727Z,99.90
2019-06-07T21:04:54.622Z,99.90
2019-06-07T21:07:22.271Z,99.90
2019-06-07T21:09:50.029Z,99.90
2019-06-07T21:12:17.763Z,99.90
2019-06-07T21:14:45.411Z,99.90
2019-06-07T21:17:13.346Z,99.90
2019-06-07T21:19:41.105Z,99.90
2019-06-07T21:22:08.918Z,99.90
2019-06-07T21:24:36.959Z,99.90
2019-06-07T21:27:05.329Z,99.90
2019-06-07T21:29:33.128Z,99.90
2019-06-07T21:32:01.300Z,99.90
2019-06-07T21:34:29.033Z,99.90
2019-06-07T21:36:56.683Z,99.90
2019-06-07T21:39:24.439Z,99.90
2019-06-07T21:41:52.410Z,99.90
2019-06-07T21:46:47.463Z,99.90
2019-06-07T21:49:15.111Z,99.90
2019-06-07T21:51:42.848Z,99.90
2019-06-07T21:54:13.165Z,99.90
2019-06-07T21:56:40.020Z,99.90
2019-06-07T21:59:09.219Z,99.90
2019-06-07T22:01:37.241Z,99.90
2019-06-07T22:04:05.432Z,99.90
2019-06-07T22:06:33.195Z,99.90
2019-06-07T22:09:00.852Z,99.90
2019-06-07T22:11:28.635Z,99.90
2019-06-07T22:13:56.307Z,99.90
2019-06-07T22:16:29.255Z,99.90
2019-06-07T22:18:53.530Z,99.90
2019-06-07T22:21:21.213Z,99.90
2019-06-07T22:23:48.865Z,99.90
2019-06-07T22:26:16.645Z,99.90
2019-06-07T22:28:44.287Z,99.90
2019-06-07T22:31:12.834Z,99.90
2019-06-07T22:33:40.699Z,99.90
2019-06-07T22:36:08.899Z,99.90
2019-06-07T22:38:36.948Z,99.90
2019-06-07T22:41:04.627Z,99.90
2019-06-07T22:43:32.286Z,99.90
2019-06-07T22:45:59.962Z,99.90
2019-06-07T22:48:27.629Z,99.90
2019-06-07T22:50:55.470Z,99.90
2019-06-07T22:53:23.130Z,99.90
2019-06-07T22:55:52.551Z,99.90
2019-06-07T22:58:20.212Z,99.90
2019-06-07T23:00:47.901Z,99.90
2019-06-07T23:03:16.779Z,99.90
2019-06-07T23:05:44.565Z,99.90
2019-06-07T23:08:13.088Z,99.90
2019-06-07T23:10:40.939Z,99.90
2019-06-07T23:13:09.267Z,99.90
2019-06-07T23:15:37.037Z,99.90
2019-06-07T23:18:04.865Z,99.90
2019-06-07T23:20:32.544Z,99.90
2019-06-07T23:23:00.194Z,99.90
2019-06-07T23:25:27.978Z,99.90
2019-06-07T23:27:55.674Z,99.90
2019-06-07T23:30:23.527Z,99.90
2019-06-07T23:32:51.625Z,99.90
2019-06-07T23:35:19.339Z,99.90
2019-06-07T23:37:46.979Z,99.90
2019-06-07T23:40:15.315Z,99.90
2019-06-07T23:42:42.958Z,99.90
2019-06-07T23:45:12.077Z,99.90
2019-06-07T23:47:40.184Z,99.90
2019-06-07T23:50:08.247Z,99.90
2019-06-07T23:52:35.972Z,99.90
2019-06-07T23:55:04.912Z,99.90
2019-06-07T23:57:32.560Z,99.90
